Welcome to Northern Hawkes Bay. New Zealand.
PWS Header
      nz Flag



Hit Counter


W3C Valid W3C Valid logo


    Wairoa

Select any of the Stations below to visit their websites.










Historic Data from Weather Underground
Select the location of interest below. Wairoa is the default. Please have patience, this Data is slow to load in.
Northern Hawkes Bay Historical Data
Daily Summary for March 28, 2017 Units:  Metric    English   Both
« Previous Day
Next Day »
Daily Weekly Monthly Yearly Custom
  High: Low: Average:
Temperature: 19.6 °C 16.7 °C 17.7 °C
Dew Point: 18.0 °C 16.4 °C 17 °C
Humidity: 99% 87% 96%
Wind Speed: 15.8km/h 0.0km/h 7km/h
Wind Gust: 24.5km/h - -
Wind- - SSW
Pressure: 1016.1 hPa 1011.1 hPa -
Precipitation: 3.6 mm    
Historical Graphs
 
 
Tabular Data for March 28, 2017
Time Temperature Dew Point Pressure Wind Wind Speed Wind Gust Humidity Rainfall Rate (Hourly) solar
00:02 16.8 °C 16.5 °C 1011.1 hPa Calm     98% 0.0 mm 0 W/m2
00:08 16.8 °C 16.5 °C 1011.1 hPa Calm     98% 0.0 mm 0 W/m2
00:14 16.7 °C 16.4 °C 1011.1 hPa Calm     98% 0.0 mm 0 W/m2
00:20 16.8 °C 16.5 °C 1011.1 hPa Calm     98% 0.0 mm 0 W/m2
00:26 16.8 °C 16.5 °C 1011.4 hPa Calm     98% 0.0 mm 0 W/m2
00:32 16.8 °C 16.5 °C 1011.4 hPa Calm     98% 0.0 mm 0 W/m2
00:38 16.9 °C 16.6 °C 1011.4 hPa Calm     98% 0.0 mm 0 W/m2
00:44 17.0 °C 16.6 °C 1011.4 hPa Calm     97% 0.0 mm 0 W/m2
00:50 17.0 °C 16.6 °C 1011.4 hPa Calm     97% 0.0 mm 0 W/m2
00:56 17.0 °C 16.6 °C 1011.4 hPa Calm     97% 0.0 mm 0 W/m2
01:02 17.0 °C 16.6 °C 1011.4 hPa Calm     97% 0.0 mm 0 W/m2
01:08 17.0 °C 16.6 °C 1011.4 hPa Calm     97% 0.0 mm 0 W/m2
01:14 17.0 °C 16.6 °C 1011.4 hPa Calm     97% 0.0 mm 0 W/m2
01:20 17.1 °C 16.6 °C 1011.4 hPa Calm     97% 0.0 mm 0 W/m2
01:26 17.0 °C 16.6 °C 1011.4 hPa Calm     97% 0.0 mm 0 W/m2
01:32 17.0 °C 16.6 °C 1011.4 hPa Calm     97% 0.0 mm 0 W/m2
01:38 17.0 °C 16.6 °C 1011.7 hPa Calm     97% 0.0 mm 0 W/m2
01:44 17.0 °C 16.6 °C 1011.7 hPa Calm     97% 0.0 mm 0 W/m2
01:50 17.0 °C 16.6 °C 1011.7 hPa Calm     97% 0.0 mm 0 W/m2
01:56 17.0 °C 16.6 °C 1011.7 hPa Calm     97% 0.0 mm 0 W/m2
02:02 17.1 °C 16.6 °C 1011.7 hPa Calm     97% 0.0 mm 0 W/m2
02:08 17.1 °C 16.6 °C 1011.7 hPa Calm     97% 0.0 mm 0 W/m2
02:14 17.1 °C 16.6 °C 1012.1 hPa Calm     97% 0.0 mm 0 W/m2
02:20 17.2 °C 16.7 °C 1012.1 hPa WSW 3.5 km/h 6.1 km/h 97% 0.0 mm 0 W/m2
02:26 17.2 °C 16.7 °C 1012.1 hPa Calm   6.1 km/h 97% 0.0 mm 0 W/m2
02:32 17.4 °C 16.9 °C 1012.1 hPa SSW 5.0 km/h 11.1 km/h 97% 0.0 mm 0 W/m2
02:38 17.4 °C 16.9 °C 1012.1 hPa SSW 5.0 km/h 13.4 km/h 97% 0.0 mm 0 W/m2
02:44 17.4 °C 16.9 °C 1012.1 hPa SSW 12.2 km/h 15.8 km/h 97% 0.0 mm 0 W/m2
02:50 17.4 °C 16.9 °C 1011.7 hPa SSW 8.7 km/h 17.2 km/h 97% 0.0 mm 0 W/m2
02:56 17.4 °C 16.9 °C 1011.7 hPa SSW 11.1 km/h 17.2 km/h 97% 0.0 mm 0 W/m2
03:02 17.4 °C 16.9 °C 1012.1 hPa SSW 5.0 km/h 14.8 km/h 97% 0.0 mm 0 W/m2
03:08 17.4 °C 16.9 °C 1012.1 hPa SW 5.0 km/h 13.4 km/h 97% 0.0 mm 0 W/m2
03:14 17.4 °C 16.9 °C 1012.1 hPa SSW 9.7 km/h 14.8 km/h 97% 0.0 mm 0 W/m2
03:20 17.4 °C 16.9 °C 1012.1 hPa South 11.1 km/h 17.2 km/h 97% 0.3 mm 0 W/m2
03:26 17.4 °C 16.9 °C 1012.1 hPa South 7.2 km/h 17.2 km/h 97% 0.3 mm 0 W/m2
03:32 17.4 °C 16.9 °C 1012.1 hPa SSW 8.7 km/h 13.4 km/h 97% 0.3 mm 0 W/m2
03:38 17.4 °C 16.9 °C 1012.1 hPa SSW 5.0 km/h 14.8 km/h 97% 0.3 mm 0 W/m2
03:44 17.4 °C 16.9 °C 1012.1 hPa South 2.6 km/h 14.8 km/h 97% 0.3 mm 0 W/m2
03:50 17.4 °C 16.9 °C 1012.1 hPa South 3.5 km/h 13.4 km/h 97% 0.3 mm 0 W/m2
03:56 17.4 °C 16.9 °C 1012.1 hPa SSW 3.5 km/h 12.2 km/h 97% 0.3 mm 0 W/m2
04:02 17.4 °C 16.9 °C 1012.1 hPa SSW 11.1 km/h 13.4 km/h 97% 0.3 mm 0 W/m2
04:08 17.2 °C 16.7 °C 1012.1 hPa SSW 6.1 km/h 13.4 km/h 97% 0.3 mm 0 W/m2
04:14 17.4 °C 16.9 °C 1012.4 hPa SSW 5.0 km/h 12.2 km/h 97% 0.3 mm 0 W/m2
04:20 17.2 °C 16.7 °C 1012.1 hPa SSW 6.1 km/h 12.2 km/h 97% 0.0 mm 0 W/m2
04:26 17.2 °C 16.7 °C 1012.1 hPa South 8.7 km/h 13.4 km/h 97% 0.0 mm 0 W/m2
04:32 17.2 °C 16.7 °C 1012.1 hPa SSW 6.1 km/h 13.4 km/h 97% 0.0 mm 0 W/m2
04:38 17.2 °C 16.7 °C 1012.1 hPa SSW 6.1 km/h 12.2 km/h 97% 0.0 mm 0 W/m2
04:44 17.2 °C 16.7 °C 1012.1 hPa SW 5.0 km/h 12.2 km/h 97% 0.0 mm 0 W/m2
04:50 17.3 °C 16.8 °C 1012.1 hPa SW 7.2 km/h 14.8 km/h 97% 0.0 mm 0 W/m2
04:56 17.3 °C 16.8 °C 1012.1 hPa SSW 5.0 km/h 14.8 km/h 97% 0.0 mm 0 W/m2
05:02 17.3 °C 16.8 °C 1012.1 hPa SSW 6.1 km/h 14.8 km/h 97% 0.0 mm 0 W/m2
05:08 17.3 °C 16.8 °C 1012.1 hPa SSW 9.7 km/h 14.8 km/h 97% 0.0 mm 0 W/m2
05:14 17.3 °C 16.8 °C 1012.1 hPa SSW 11.1 km/h 18.3 km/h 97% 0.0 mm 0 W/m2
05:20 17.3 °C 16.8 °C 1012.1 hPa SSW 7.2 km/h 18.3 km/h 97% 0.0 mm 0 W/m2
05:26 17.3 °C 16.8 °C 1012.1 hPa South 12.2 km/h 18.3 km/h 97% 0.0 mm 0 W/m2
05:32 17.3 °C 16.8 °C 1012.1 hPa South 11.1 km/h 18.3 km/h 97% 0.0 mm 0 W/m2
05:36 17.3 °C 16.8 °C 1011.7 hPa SSW 11.1 km/h 18.3 km/h 97% 0.0 mm 0 W/m2
05:42 17.3 °C 16.8 °C 1012.1 hPa SSW 8.7 km/h 24.5 km/h 97% 0.0 mm 0 W/m2
05:48 17.2 °C 16.7 °C 1012.1 hPa SSW 12.2 km/h 24.5 km/h 97% 0.0 mm 0 W/m2
05:54 17.2 °C 16.7 °C 1012.1 hPa SSW 13.4 km/h 23.3 km/h 97% 0.0 mm 0 W/m2
06:00 17.3 °C 16.8 °C 1012.4 hPa SSW 7.2 km/h 19.5 km/h 97% 0.0 mm 0 W/m2
06:06 17.3 °C 16.8 °C 1012.4 hPa SSW 8.7 km/h 17.2 km/h 97% 0.0 mm 0 W/m2
06:12 17.4 °C 16.9 °C 1012.4 hPa SSW 7.2 km/h 15.8 km/h 97% 0.0 mm 0 W/m2
06:18 17.3 °C 16.8 °C 1012.4 hPa SSW 8.7 km/h 13.4 km/h 97% 0.0 mm 0 W/m2
06:24 17.4 °C 16.9 °C 1012.4 hPa SSW 11.1 km/h 17.2 km/h 97% 0.0 mm 0 W/m2
06:30 17.3 °C 16.8 °C 1012.4 hPa SSW 13.4 km/h 19.5 km/h 97% 0.0 mm 0 W/m2
06:36 17.2 °C 16.7 °C 1012.4 hPa SSW 11.1 km/h 20.9 km/h 97% 0.0 mm 0 W/m2
06:42 17.2 °C 16.7 °C 1012.8 hPa South 13.4 km/h 20.9 km/h 97% 0.0 mm 0 W/m2
06:48 17.2 °C 16.7 °C 1012.8 hPa SSW 11.1 km/h 19.5 km/h 97% 0.0 mm 0 W/m2
06:54 17.2 °C 16.7 °C 1012.8 hPa SW 12.2 km/h 15.8 km/h 97% 0.0 mm 0 W/m2
07:00 17.2 °C 16.7 °C 1012.8 hPa SSW 11.1 km/h 19.5 km/h 97% 0.0 mm 0 W/m2
07:06 17.2 °C 16.7 °C 1012.8 hPa SSW 11.1 km/h 19.5 km/h 97% 0.0 mm 0 W/m2
07:12 17.2 °C 16.7 °C 1012.8 hPa SSW 12.2 km/h 15.8 km/h 97% 0.0 mm 0 W/m2
07:18 17.2 °C 16.7 °C 1012.8 hPa SSW 6.1 km/h 17.2 km/h 97% 0.0 mm 0 W/m2
07:24 17.2 °C 16.7 °C 1012.8 hPa SSW 12.2 km/h 18.3 km/h 97% 0.0 mm 0 W/m2
07:30 17.2 °C 16.7 °C 1012.8 hPa SSW 7.2 km/h 23.3 km/h 97% 0.0 mm 2 W/m2
07:36 17.2 °C 16.7 °C 1012.8 hPa SSW 8.7 km/h 23.3 km/h 97% 0.0 mm 2 W/m2
07:42 17.2 °C 16.7 °C 1013.1 hPa SSW 12.2 km/h 20.9 km/h 97% 0.0 mm 4 W/m2
07:48 17.3 °C 16.8 °C 1013.1 hPa SSW 8.7 km/h 20.9 km/h 97% 0.0 mm 8 W/m2
07:54 17.3 °C 16.8 °C 1013.1 hPa SSW 12.2 km/h 20.9 km/h 97% 0.0 mm 11 W/m2
08:00 17.3 °C 16.8 °C 1013.1 hPa SSW 3.5 km/h 20.9 km/h 97% 0.0 mm 13 W/m2
08:06 17.5 °C 17.1 °C 1013.1 hPa South 9.7 km/h 18.3 km/h 97% 0.0 mm 25 W/m2
08:12 17.5 °C 17.1 °C 1013.4 hPa SSW 11.1 km/h 20.9 km/h 97% 0.0 mm 21 W/m2
08:18 17.5 °C 17.1 °C 1013.4 hPa South 9.7 km/h 20.9 km/h 97% 0.0 mm 30 W/m2
08:24 17.6 °C 17.1 °C 1013.4 hPa South 9.7 km/h 20.9 km/h 97% 0.0 mm 54 W/m2
08:30 17.6 °C 17.1 °C 1013.8 hPa South 11.1 km/h 21.9 km/h 97% 0.0 mm 45 W/m2
08:36 17.6 °C 17.1 °C 1013.8 hPa SSW 9.7 km/h 19.5 km/h 97% 0.0 mm 18 W/m2
08:40 17.6 °C 17.1 °C 1014.1 hPa SSW 6.1 km/h 19.5 km/h 97% 0.0 mm 25 W/m2
08:42 17.7 °C 17.2 °C 1013.8 hPa South 11.1 km/h 19.5 km/h 97% 0.0 mm 24 W/m2
08:48 17.6 °C 16.9 °C 1014.1 hPa South 14.8 km/h 19.5 km/h 96% 0.0 mm 43 W/m2
08:50 17.6 °C 16.9 °C 1013.8 hPa South 11.1 km/h 19.5 km/h 96% 0.0 mm 50 W/m2
08:54 17.6 °C 16.9 °C 1013.8 hPa South 11.1 km/h 19.5 km/h 96% 0.0 mm 71 W/m2
08:56 17.7 °C 17.1 °C 1013.8 hPa South 15.8 km/h 19.5 km/h 96% 0.0 mm 79 W/m2
08:58 17.7 °C 17.1 °C 1014.1 hPa South 6.1 km/h 19.5 km/h 96% 0.0 mm 71 W/m2
09:00 17.8 °C 17.2 °C 1013.8 hPa South 8.7 km/h 19.5 km/h 96% 0.0 mm 66 W/m2
09:06 17.8 °C 17.3 °C 1014.1 hPa South 8.7 km/h 19.5 km/h 97% 0.0 mm 66 W/m2
09:12 17.8 °C 17.3 °C 1014.1 hPa South 5.0 km/h 14.8 km/h 97% 0.0 mm 62 W/m2
09:14 17.8 °C 17.3 °C 1014.1 hPa South 8.7 km/h 15.8 km/h 97% 0.0 mm 64 W/m2
09:20 17.8 °C 17.3 °C 1014.1 hPa South 14.8 km/h 20.9 km/h 97% 0.0 mm 87 W/m2
09:26 17.8 °C 17.3 °C 1014.1 hPa SSW 9.7 km/h 20.9 km/h 97% 0.0 mm 85 W/m2
09:32 17.8 °C 17.3 °C 1014.1 hPa SW 13.4 km/h 20.9 km/h 97% 0.0 mm 99 W/m2
09:38 17.8 °C 17.3 °C 1014.1 hPa SSW 9.7 km/h 20.9 km/h 97% 0.0 mm 95 W/m2
09:44 17.9 °C 17.4 °C 1014.4 hPa South 8.7 km/h 17.2 km/h 97% 0.0 mm 98 W/m2
09:50 17.9 °C 17.4 °C 1014.8 hPa SSW 6.1 km/h 17.2 km/h 97% 0.0 mm 76 W/m2
09:56 17.8 °C 17.2 °C 1014.8 hPa South 7.2 km/h 18.3 km/h 96% 0.0 mm 96 W/m2
09:58 17.8 °C 17.2 °C 1014.8 hPa South 5.0 km/h 18.3 km/h 96% 0.0 mm 90 W/m2
10:04 17.9 °C 17.4 °C 1014.8 hPa South 7.2 km/h 13.4 km/h 97% 0.0 mm 95 W/m2
10:10 17.9 °C 17.3 °C 1014.8 hPa South 8.7 km/h 12.2 km/h 96% 0.0 mm 73 W/m2
10:16 18.0 °C 17.6 °C 1014.8 hPa South 6.1 km/h 12.2 km/h 97% 0.0 mm 93 W/m2
10:22 18.0 °C 17.6 °C 1015.1 hPa South 9.7 km/h 14.8 km/h 97% 0.0 mm 85 W/m2
10:28 18.0 °C 17.6 °C 1015.1 hPa South 9.7 km/h 14.8 km/h 97% 0.0 mm 110 W/m2
10:34 17.9 °C 17.3 °C 1015.1 hPa SSW 5.0 km/h 14.8 km/h 96% 0.0 mm 106 W/m2
10:40 17.9 °C 17.4 °C 1015.1 hPa SSW 8.7 km/h 14.8 km/h 97% 0.0 mm 143 W/m2
10:46 18.0 °C 17.7 °C 1015.1 hPa South 11.1 km/h 14.8 km/h 98% 0.0 mm 199 W/m2
10:52 18.1 °C 17.8 °C 1015.1 hPa South 6.1 km/h 14.8 km/h 98% 0.0 mm 192 W/m2
10:58 18.2 °C 17.9 °C 1015.1 hPa South 11.1 km/h 14.8 km/h 98% 0.0 mm 216 W/m2
11:04 18.3 °C 18.0 °C 1015.1 hPa South 12.2 km/h 18.3 km/h 98% 0.3 mm 166 W/m2
11:10 18.0 °C 17.7 °C 1015.1 hPa SW 7.2 km/h 18.3 km/h 98% 0.3 mm 141 W/m2
11:16 17.9 °C 17.4 °C 1015.1 hPa SW 9.7 km/h 17.2 km/h 97% 0.3 mm 209 W/m2
11:22 18.0 °C 17.7 °C 1015.1 hPa SW 11.1 km/h 17.2 km/h 98% 0.3 mm 211 W/m2
11:28 18.1 °C 17.8 °C 1015.1 hPa SSW 12.2 km/h 17.2 km/h 98% 0.3 mm 139 W/m2
11:34 17.9 °C 17.4 °C 1015.1 hPa SW 9.7 km/h 17.2 km/h 97% 0.3 mm 207 W/m2
11:40 17.9 °C 17.4 °C 1015.1 hPa SSW 9.7 km/h 17.2 km/h 97% 0.3 mm 161 W/m2
11:46 17.9 °C 17.4 °C 1015.1 hPa SSW 7.2 km/h 15.8 km/h 97% 0.3 mm 170 W/m2
11:52 17.9 °C 17.4 °C 1015.1 hPa SSW 7.2 km/h 14.8 km/h 97% 0.3 mm 186 W/m2
11:58 18.1 °C 17.9 °C 1015.1 hPa SW 8.7 km/h 13.4 km/h 99% 0.3 mm 163 W/m2
12:04 18.1 °C 17.8 °C 1015.5 hPa SSW 9.7 km/h 13.4 km/h 98% 0.0 mm 215 W/m2
12:10 18.3 °C 18.0 °C 1015.1 hPa SSW 8.7 km/h 12.2 km/h 98% 0.0 mm 163 W/m2
12:16 18.3 °C 18.0 °C 1015.5 hPa SSW 7.2 km/h 13.4 km/h 98% 0.0 mm 161 W/m2
12:22 18.3 °C 18.0 °C 1015.1 hPa SSW 8.7 km/h 13.4 km/h 98% 0.0 mm 225 W/m2
12:28 18.3 °C 18.0 °C 1015.1 hPa SW 5.0 km/h 13.4 km/h 98% 0.0 mm 103 W/m2
12:34 18.2 °C 17.7 °C 1015.1 hPa SW 6.1 km/h 15.8 km/h 97% 0.0 mm 177 W/m2
12:40 18.1 °C 17.8 °C 1015.1 hPa SSW 5.0 km/h 15.8 km/h 98% 0.0 mm 242 W/m2
12:46 18.1 °C 17.8 °C 1015.1 hPa SSW 7.2 km/h 18.3 km/h 98% 0.0 mm 278 W/m2
12:52 18.2 °C 17.9 °C 1014.8 hPa SSW 11.1 km/h 18.3 km/h 98% 0.0 mm 313 W/m2
12:58 18.0 °C 17.7 °C 1015.1 hPa South 11.1 km/h 18.3 km/h 98% 0.0 mm 229 W/m2
13:04 18.1 °C 17.8 °C 1015.1 hPa SSW 14.8 km/h 18.3 km/h 98% 0.0 mm 331 W/m2
13:10 18.2 °C 17.7 °C 1015.1 hPa South 9.7 km/h 18.3 km/h 97% 0.0 mm 277 W/m2
13:16 18.4 °C 17.9 °C 1015.1 hPa South 12.2 km/h 18.3 km/h 97% 0.0 mm 187 W/m2
13:22 18.3 °C 17.7 °C 1015.1 hPa SSW 8.7 km/h 18.3 km/h 96% 0.0 mm 185 W/m2
13:28 18.1 °C 17.4 °C 1014.8 hPa SSW 7.2 km/h 18.3 km/h 96% 0.0 mm 128 W/m2
13:34 18.1 °C 17.4 °C 1014.8 hPa SSW 8.7 km/h 17.2 km/h 96% 0.0 mm 187 W/m2
13:40 18.2 °C 17.6 °C 1015.1 hPa SSW 13.4 km/h 17.2 km/h 96% 0.0 mm 141 W/m2
13:46 18.2 °C 17.6 °C 1014.8 hPa SSW 6.1 km/h 15.8 km/h 96% 0.0 mm 149 W/m2
13:52 18.1 °C 17.4 °C 1014.8 hPa SSW 7.2 km/h 18.3 km/h 96% 0.0 mm 174 W/m2
13:58 18.1 °C 17.3 °C 1014.8 hPa South 12.2 km/h 18.3 km/h 95% 0.0 mm 216 W/m2
14:04 18.2 °C 17.4 °C 1014.8 hPa South 9.7 km/h 18.3 km/h 95% 0.0 mm 246 W/m2
14:10 18.5 °C 17.7 °C 1015.1 hPa South 11.1 km/h 17.2 km/h 95% 0.0 mm 274 W/m2
14:16 18.7 °C 17.7 °C 1014.8 hPa South 12.2 km/h 18.3 km/h 94% 0.0 mm 310 W/m2
14:22 18.9 °C 17.8 °C 1014.8 hPa South 6.1 km/h 18.3 km/h 93% 0.0 mm 271 W/m2
14:28 18.8 °C 17.5 °C 1014.8 hPa SSW 8.7 km/h 17.2 km/h 92% 0.0 mm 287 W/m2
14:34 18.8 °C 17.3 °C 1014.8 hPa SSW 7.2 km/h 18.3 km/h 91% 0.0 mm 260 W/m2
14:40 18.8 °C 17.1 °C 1014.8 hPa SSW 5.0 km/h 18.3 km/h 90% 0.0 mm 428 W/m2
14:46 19.3 °C 17.4 °C 1014.8 hPa SSW 8.7 km/h 15.8 km/h 89% 0.0 mm 398 W/m2
14:52 19.4 °C 17.4 °C 1014.8 hPa SSW 9.7 km/h 15.8 km/h 88% 0.0 mm 318 W/m2
14:58 19.4 °C 17.4 °C 1014.8 hPa South 12.2 km/h 17.2 km/h 88% 0.0 mm 291 W/m2
15:04 19.0 °C 17.0 °C 1014.8 hPa SSW 6.1 km/h 17.2 km/h 88% 0.0 mm 403 W/m2
15:10 19.6 °C 17.6 °C 1014.8 hPa South 9.7 km/h 15.8 km/h 88% 0.0 mm 361 W/m2
15:16 19.3 °C 17.1 °C 1014.8 hPa South 8.7 km/h 14.8 km/h 87% 0.0 mm 293 W/m2
15:22 19.1 °C 17.1 °C 1014.8 hPa South 7.2 km/h 13.4 km/h 88% 0.0 mm 216 W/m2
15:28 18.8 °C 16.9 °C 1015.1 hPa South 7.2 km/h 13.4 km/h 89% 0.0 mm 142 W/m2
15:34 18.8 °C 17.1 °C 1014.8 hPa South 11.1 km/h 13.4 km/h 90% 0.0 mm 159 W/m2
15:40 18.8 °C 17.3 °C 1014.8 hPa SSW 9.7 km/h 13.4 km/h 91% 0.0 mm 181 W/m2
15:46 18.9 °C 17.4 °C 1014.8 hPa South 6.1 km/h 12.2 km/h 91% 0.0 mm 135 W/m2
15:52 18.8 °C 17.5 °C 1014.8 hPa South 5.0 km/h 11.1 km/h 92% 0.0 mm 109 W/m2
15:58 18.5 °C 17.2 °C 1014.8 hPa South 8.7 km/h 13.4 km/h 92% 0.0 mm 91 W/m2
16:04 18.3 °C 17.0 °C 1014.8 hPa SSE 3.5 km/h 14.8 km/h 92% 0.0 mm 77 W/m2
16:10 18.2 °C 17.1 °C 1014.8 hPa South 7.2 km/h 15.8 km/h 93% 0.0 mm 98 W/m2
16:16 18.3 °C 17.3 °C 1014.8 hPa South 6.1 km/h 13.4 km/h 94% 0.0 mm 157 W/m2
16:22 18.4 °C 17.3 °C 1014.4 hPa South 12.2 km/h 14.8 km/h 93% 0.0 mm 143 W/m2
16:28 18.4 °C 17.3 °C 1014.8 hPa South 6.1 km/h 14.8 km/h 93% 0.0 mm 115 W/m2
16:34 18.4 °C 17.3 °C 1014.4 hPa South 11.1 km/h 14.8 km/h 93% 0.0 mm 124 W/m2
16:40 18.3 °C 17.2 °C 1014.8 hPa South 7.2 km/h 14.8 km/h 93% 0.0 mm 113 W/m2
16:46 18.3 °C 17.2 °C 1014.4 hPa South 5.0 km/h 13.4 km/h 93% 0.0 mm 108 W/m2
16:52 18.4 °C 17.3 °C 1014.4 hPa South 9.7 km/h 12.2 km/h 93% 0.0 mm 93 W/m2
16:58 18.3 °C 17.3 °C 1014.8 hPa South 5.0 km/h 12.2 km/h 94% 0.0 mm 102 W/m2
17:04 18.4 °C 17.4 °C 1014.4 hPa South 8.7 km/h 12.2 km/h 94% 0.0 mm 160 W/m2
17:10 18.5 °C 17.6 °C 1014.8 hPa South 7.2 km/h 13.4 km/h 94% 0.0 mm 134 W/m2
17:16 18.5 °C 17.3 °C 1014.8 hPa South 5.0 km/h 13.4 km/h 93% 0.0 mm 166 W/m2
17:22 18.7 °C 17.6 °C 1014.8 hPa South 7.2 km/h 12.2 km/h 93% 0.0 mm 133 W/m2
17:28 18.6 °C 17.3 °C 1014.8 hPa South 8.7 km/h 13.4 km/h 92% 0.0 mm 103 W/m2
17:34 18.4 °C 17.1 °C 1014.8 hPa South 8.7 km/h 13.4 km/h 92% 0.0 mm 71 W/m2
17:40 18.3 °C 17.0 °C 1014.8 hPa South 3.5 km/h 12.2 km/h 92% 0.0 mm 81 W/m2
17:46 18.3 °C 17.2 °C 1014.8 hPa South 9.7 km/h 13.4 km/h 93% 0.0 mm 111 W/m2
17:52 18.4 °C 17.3 °C 1014.8 hPa SSW 9.7 km/h 14.8 km/h 93% 0.0 mm 127 W/m2
17:58 18.4 °C 17.3 °C 1014.8 hPa South 7.2 km/h 14.8 km/h 93% 0.0 mm 108 W/m2
18:04 18.4 °C 17.1 °C 1014.8 hPa South 6.1 km/h 13.4 km/h 92% 0.0 mm 89 W/m2
18:10 18.2 °C 16.9 °C 1015.1 hPa South 9.7 km/h 13.4 km/h 92% 0.0 mm 59 W/m2
18:16 18.1 °C 16.9 °C 1015.1 hPa South 5.0 km/h 13.4 km/h 93% 0.0 mm 38 W/m2
18:22 18.1 °C 16.9 °C 1015.1 hPa South 5.0 km/h 11.1 km/h 93% 0.0 mm 22 W/m2
18:28 18.0 °C 16.9 °C 1015.1 hPa South 6.1 km/h 11.1 km/h 93% 0.0 mm 16 W/m2
18:34 17.9 °C 16.8 °C 1015.1 hPa South 9.7 km/h 12.2 km/h 93% 0.0 mm 12 W/m2
18:40 17.9 °C 16.8 °C 1014.8 hPa South 6.1 km/h 12.2 km/h 93% 0.0 mm 13 W/m2
18:46 17.8 °C 16.7 °C 1015.1 hPa South 7.2 km/h 11.1 km/h 93% 0.0 mm 8 W/m2
18:52 17.8 °C 16.7 °C 1014.8 hPa SSW 7.2 km/h 11.1 km/h 93% 0.0 mm 7 W/m2
18:58 17.8 °C 16.7 °C 1014.8 hPa SSW 3.5 km/h 11.1 km/h 93% 0.0 mm 5 W/m2
19:04 17.8 °C 16.7 °C 1015.1 hPa SSW 5.0 km/h 9.7 km/h 93% 0.0 mm 1 W/m2
19:10 17.8 °C 16.7 °C 1015.1 hPa SSW 8.7 km/h 11.1 km/h 93% 0.0 mm 0 W/m2
19:16 17.8 °C 16.8 °C 1015.1 hPa SSW 2.6 km/h 11.1 km/h 94% 0.0 mm 0 W/m2
19:22 17.8 °C 16.8 °C 1015.1 hPa Calm   12.2 km/h 94% 0.0 mm 0 W/m2
19:28 17.8 °C 16.8 °C 1015.1 hPa SSW 6.1 km/h 12.2 km/h 94% 0.0 mm 0 W/m2
19:34 17.7 °C 16.7 °C 1015.1 hPa SSW 9.7 km/h 12.2 km/h 94% 0.0 mm 0 W/m2
19:40 17.7 °C 16.9 °C 1015.1 hPa SSW 6.1 km/h 12.2 km/h 95% 0.0 mm 0 W/m2
19:46 17.7 °C 16.9 °C 1015.1 hPa SSW 8.7 km/h 13.4 km/h 95% 0.0 mm 0 W/m2
19:52 17.7 °C 16.9 °C 1015.5 hPa SSW 6.1 km/h 13.4 km/h 95% 0.0 mm 0 W/m2
19:58 17.7 °C 16.9 °C 1015.5 hPa SSW 2.6 km/h 12.2 km/h 95% 0.0 mm 0 W/m2
20:04 17.6 °C 16.8 °C 1015.5 hPa SSW 5.0 km/h 12.2 km/h 95% 0.0 mm 0 W/m2
20:10 17.6 °C 16.8 °C 1015.5 hPa South 6.1 km/h 14.8 km/h 95% 0.0 mm 0 W/m2
20:16 17.5 °C 16.7 °C 1015.5 hPa South 5.0 km/h 14.8 km/h 95% 0.0 mm 0 W/m2
20:22 17.5 °C 16.9 °C 1015.5 hPa SSW 2.6 km/h 13.4 km/h 96% 0.0 mm 0 W/m2
20:28 17.5 °C 16.9 °C 1015.5 hPa SSW 5.0 km/h 12.2 km/h 96% 0.0 mm 0 W/m2
20:34 17.5 °C 16.9 °C 1015.5 hPa SSW 3.5 km/h 12.2 km/h 96% 0.0 mm 0 W/m2
20:40 17.4 °C 16.9 °C 1015.5 hPa SSW 6.1 km/h 12.2 km/h 97% 0.3 mm 0 W/m2
20:46 17.4 °C 16.9 °C 1015.5 hPa SSW 3.5 km/h 12.2 km/h 97% 0.3 mm 0 W/m2
20:52 17.4 °C 16.9 °C 1015.5 hPa SSW 5.0 km/h 12.2 km/h 97% 0.3 mm 0 W/m2
20:58 17.4 °C 16.9 °C 1015.5 hPa SSW 6.1 km/h 13.4 km/h 97% 0.3 mm 0 W/m2
21:04 17.4 °C 16.9 °C 1015.8 hPa SSW 5.0 km/h 12.2 km/h 97% 0.3 mm 0 W/m2
21:10 17.4 °C 16.9 °C 1015.8 hPa SSW 7.2 km/h 11.1 km/h 97% 0.3 mm 0 W/m2
21:16 17.4 °C 16.9 °C 1015.8 hPa SSW 3.5 km/h 14.8 km/h 97% 0.3 mm 0 W/m2
21:22 17.3 °C 16.8 °C 1015.8 hPa SSW 7.2 km/h 14.8 km/h 97% 0.3 mm 0 W/m2
21:28 17.3 °C 16.8 °C 1015.8 hPa SSW 6.1 km/h 14.8 km/h 97% 0.3 mm 0 W/m2
21:34 17.3 °C 16.8 °C 1015.8 hPa SSW 5.0 km/h 13.4 km/h 97% 0.3 mm 0 W/m2
21:40 17.3 °C 16.8 °C 1015.8 hPa SSW 7.2 km/h 12.2 km/h 97% 0.0 mm 0 W/m2
21:46 17.3 °C 16.8 °C 1015.8 hPa SSW 6.1 km/h 11.1 km/h 97% 0.0 mm 0 W/m2
21:52 17.3 °C 16.8 °C 1016.1 hPa SSW 5.0 km/h 11.1 km/h 97% 0.0 mm 0 W/m2
21:58 17.3 °C 16.8 °C 1015.8 hPa SSW 8.7 km/h 11.1 km/h 97% 0.3 mm 0 W/m2
22:04 17.3 °C 16.8 °C 1015.8 hPa SSW 2.6 km/h 11.1 km/h 97% 0.3 mm 0 W/m2
22:10 17.3 °C 16.8 °C 1015.8 hPa SSW 2.6 km/h 9.7 km/h 97% 0.3 mm 0 W/m2
22:16 17.3 °C 16.8 °C 1015.5 hPa Calm   13.4 km/h 97% 0.3 mm 0 W/m2
22:22 17.3 °C 16.8 °C 1015.5 hPa South 7.2 km/h 13.4 km/h 97% 0.3 mm 0 W/m2
22:28 17.3 °C 16.8 °C 1015.5 hPa South 5.0 km/h 12.2 km/h 97% 0.3 mm 0 W/m2
22:34 17.3 °C 16.8 °C 1015.5 hPa South 5.0 km/h 14.8 km/h 97% 0.3 mm 0 W/m2
22:40 17.3 °C 16.8 °C 1015.5 hPa SSW 6.1 km/h 14.8 km/h 97% 0.3 mm 0 W/m2
22:46 17.3 °C 16.8 °C 1015.5 hPa SSW 6.1 km/h 13.4 km/h 97% 0.3 mm 0 W/m2
22:52 17.3 °C 16.8 °C 1015.5 hPa Calm   13.4 km/h 97% 0.3 mm 0 W/m2
22:58 17.3 °C 16.8 °C 1015.1 hPa South 2.6 km/h 11.1 km/h 97% 0.3 mm 0 W/m2
23:04 17.3 °C 16.8 °C 1015.1 hPa South 5.0 km/h 11.1 km/h 97% 0.3 mm 0 W/m2
23:10 17.3 °C 16.8 °C 1015.1 hPa South 6.1 km/h 11.1 km/h 97% 0.5 mm 0 W/m2
23:16 17.3 °C 16.8 °C 1015.5 hPa Calm   11.1 km/h 97% 0.5 mm 0 W/m2
23:22 17.3 °C 16.8 °C 1015.5 hPa SW 3.5 km/h 11.1 km/h 97% 1.0 mm 0 W/m2
23:28 17.3 °C 16.8 °C 1015.5 hPa SSW 3.5 km/h 11.1 km/h 97% 1.3 mm 0 W/m2
23:34 17.3 °C 16.8 °C 1015.1 hPa SSW 3.5 km/h 9.7 km/h 97% 1.3 mm 0 W/m2
23:40 17.3 °C 16.8 °C 1015.1 hPa Calm   8.7 km/h 97% 1.5 mm 0 W/m2
23:46 17.3 °C 16.8 °C 1015.1 hPa SSW 7.2 km/h 13.4 km/h 97% 1.8 mm 0 W/m2
23:52 17.3 °C 16.8 °C 1014.8 hPa SSW 6.1 km/h 13.4 km/h 97% 2.0 mm 0 W/m2
23:58 17.3 °C 16.8 °C 1014.8 hPa SSW 7.2 km/h 13.4 km/h 97% 2.0 mm 0 W/m2
Northern Hawkes Bay. New Zealand Historic Data
Compliments of Weather Underground - 2 mb